createdAt,value
2018-02-19T00:01:27.065Z,21.90
2018-02-19T00:03:28.039Z,22.90
2018-02-19T00:05:30.006Z,21.43
2018-02-19T00:07:32.498Z,25.65
2018-02-19T00:09:33.513Z,23.67
2018-02-19T00:11:34.489Z,21.90
2018-02-19T00:16:23.574Z,25.53
2018-02-19T00:20:54.366Z,25.00
2018-02-19T00:22:55.930Z,24.60
2018-02-19T00:27:28.756Z,22.33
2018-02-19T00:29:40.494Z,27.45
2018-02-19T00:31:41.960Z,22.50
2018-02-19T00:33:43.043Z,22.20
2018-02-19T00:35:44.116Z,21.70
2018-02-19T00:37:45.879Z,23.80
2018-02-19T00:39:54.079Z,22.57
2018-02-19T00:41:55.250Z,21.80
2018-02-19T00:43:56.252Z,23.98
2018-02-19T00:45:57.372Z,21.83
2018-02-19T00:47:58.373Z,21.80
2018-02-19T00:50:01.746Z,21.20
2018-02-19T00:52:02.769Z,20.47
2018-02-19T00:54:28.751Z,22.00
2018-02-19T00:56:30.160Z,20.30
2018-02-19T00:58:31.297Z,20.90
2018-02-19T01:00:32.287Z,19.20
2018-02-19T01:05:23.864Z,19.87
2018-02-19T01:07:24.838Z,17.60
2018-02-19T01:09:34.748Z,18.57
2018-02-19T01:11:53.970Z,19.62
2018-02-19T01:13:55.310Z,19.83
2018-02-19T01:18:24.185Z,17.05
2018-02-19T01:22:53.078Z,14.97
2018-02-19T01:24:54.145Z,15.73
2018-02-19T01:29:24.318Z,15.83
2018-02-19T01:31:25.295Z,15.67
2018-02-19T01:35:54.095Z,20.67
2018-02-19T01:40:23.971Z,17.07
2018-02-19T01:44:52.679Z,17.97
2018-02-19T01:49:01.666Z,18.37
2018-02-19T01:51:02.674Z,17.57
2018-02-19T01:53:04.873Z,18.20
2018-02-19T01:55:27.182Z,16.77
2018-02-19T01:57:28.424Z,17.63
2018-02-19T01:59:29.398Z,16.83
2018-02-19T02:01:30.369Z,16.70
2018-02-19T02:03:31.307Z,17.87
2018-02-19T02:05:32.901Z,20.30
2018-02-19T02:07:33.884Z,18.73
2018-02-19T02:09:34.924Z,19.90
2018-02-19T02:11:56.003Z,18.30
2018-02-19T02:13:57.274Z,17.27
2018-02-19T02:15:58.672Z,17.20
2018-02-19T02:23:06.410Z,16.27
2018-02-19T02:25:13.489Z,16.80
2018-02-19T02:27:16.325Z,17.90
2018-02-19T02:29:17.365Z,19.60
2018-02-19T02:31:42.354Z,18.00
2018-02-19T02:36:11.152Z,18.00
2018-02-19T02:38:12.197Z,17.00
2018-02-19T02:40:13.319Z,16.13
2018-02-19T02:42:14.669Z,17.87
2018-02-19T02:44:15.683Z,22.60
2018-02-19T02:46:16.751Z,19.87
2018-02-19T02:48:19.348Z,19.33
2018-02-19T02:50:28.611Z,19.80
2018-02-19T02:52:29.695Z,22.70
2018-02-19T02:54:30.690Z,20.27
2018-02-19T02:56:34.005Z,19.63
2018-02-19T03:01:13.876Z,18.40
2018-02-19T03:03:16.289Z,18.77
2018-02-19T03:05:17.381Z,20.48
2018-02-19T03:07:19.545Z,18.20
2018-02-19T03:09:41.854Z,19.20
2018-02-19T03:11:48.126Z,17.57
2018-02-19T03:14:04.975Z,22.37
2018-02-19T03:18:38.388Z,19.43
2018-02-19T03:20:41.767Z,18.80
2018-02-19T03:22:43.231Z,21.20
2018-02-19T03:24:45.142Z,20.62
2018-02-19T03:27:00.605Z,19.67
2018-02-19T03:29:01.835Z,24.63
2018-02-19T03:31:02.982Z,20.50
2018-02-19T03:33:30.673Z,21.83
2018-02-19T03:35:32.146Z,20.90
2018-02-19T03:40:03.421Z,20.83
2018-02-19T03:42:04.929Z,21.30
2018-02-19T03:44:30.440Z,20.67
2018-02-19T03:49:00.703Z,21.70
2018-02-19T03:51:01.907Z,26.23
2018-02-19T03:53:03.975Z,24.40
2018-02-19T03:55:05.116Z,21.57
2018-02-19T03:57:08.756Z,22.52
2018-02-19T03:59:10.503Z,22.47
2018-02-19T04:01:11.943Z,20.67
2018-02-19T04:03:32.142Z,20.97
2018-02-19T04:05:33.627Z,26.83
2018-02-19T04:07:35.560Z,23.97
2018-02-19T04:09:36.738Z,21.60
2018-02-19T04:11:37.977Z,23.13
2018-02-19T04:13:39.264Z,20.80
2018-02-19T04:15:40.419Z,21.58
2018-02-19T04:20:09.814Z,28.35
2018-02-19T04:22:11.052Z,23.40
2018-02-19T04:26:50.801Z,25.27
2018-02-19T04:29:03.901Z,23.80
2018-02-19T04:31:04.988Z,22.20
2018-02-19T04:33:06.480Z,21.97
2018-02-19T04:35:07.751Z,22.03
2018-02-19T04:37:08.995Z,21.50
2018-02-19T04:39:30.043Z,22.00
2018-02-19T05:45:07.038Z,38.42
2018-02-19T05:47:08.121Z,26.40
2018-02-19T05:49:09.196Z,23.90
2018-02-19T05:51:10.479Z,25.52
2018-02-19T05:53:11.554Z,23.73
2018-02-19T05:55:12.553Z,24.07
2018-02-19T05:57:13.874Z,24.90
2018-02-19T05:59:15.809Z,31.05
2018-02-19T06:01:17.131Z,32.13
2018-02-19T06:03:18.398Z,30.80
2018-02-19T06:05:46.777Z,30.03
2018-02-19T06:10:15.890Z,37.37
2018-02-19T06:12:20.073Z,27.13
2018-02-19T06:16:58.600Z,22.95
2018-02-19T06:18:59.637Z,24.40
2018-02-19T06:21:00.632Z,27.08
2018-02-19T06:23:01.741Z,25.13
2018-02-19T06:29:52.590Z,76.30
2018-02-19T06:31:53.831Z,27.23
2018-02-19T06:33:58.294Z,22.35
2018-02-19T06:35:59.446Z,29.33
2018-02-19T06:38:00.540Z,26.30
2018-02-19T06:40:01.525Z,23.90
2018-02-19T06:42:02.538Z,26.33
2018-02-19T06:44:04.469Z,24.17
2018-02-19T06:46:05.501Z,23.40
2018-02-19T06:48:27.724Z,24.30
2018-02-19T06:50:28.710Z,30.55
2018-02-19T06:52:29.900Z,26.70
2018-02-19T06:54:30.925Z,24.97
2018-02-19T06:56:31.898Z,29.05
2018-02-19T06:58:32.910Z,26.60
2018-02-19T07:00:34.388Z,24.83
2018-02-19T07:02:35.968Z,23.43
2018-02-19T07:04:37.010Z,30.95
2018-02-19T07:06:38.007Z,28.67
2018-02-19T07:08:38.964Z,26.73
2018-02-19T07:11:00.248Z,25.30
2018-02-19T07:13:01.216Z,26.33
2018-02-19T07:15:02.216Z,24.67
2018-02-19T07:17:03.193Z,25.03
2018-02-19T07:19:04.914Z,31.20
2018-02-19T07:21:06.017Z,29.07
2018-02-19T07:23:07.041Z,27.67
2018-02-19T07:25:08.054Z,27.37
2018-02-19T07:27:09.011Z,27.00
2018-02-19T07:31:48.247Z,26.25
2018-02-19T07:33:49.450Z,25.20
2018-02-19T07:35:50.545Z,24.67
2018-02-19T07:37:51.543Z,25.87
2018-02-19T07:39:52.677Z,31.15
2018-02-19T07:41:53.744Z,29.67
2018-02-19T07:43:54.871Z,27.33
2018-02-19T07:51:06.877Z,26.47
2018-02-19T07:55:44.386Z,27.67
2018-02-19T07:58:06.531Z,25.97
2018-02-19T08:00:07.704Z,25.57
2018-02-19T08:02:08.950Z,25.23
2018-02-19T08:10:32.917Z,26.83
2018-02-19T08:12:35.759Z,27.80
2018-02-19T08:14:36.966Z,27.65
2018-02-19T08:16:38.007Z,29.27
2018-02-19T08:18:39.068Z,26.87
2018-02-19T08:20:40.171Z,26.83
2018-02-19T08:22:41.447Z,34.85
2018-02-19T08:37:39.120Z,24.63
2018-02-19T08:44:40.657Z,31.33
2018-02-19T08:49:15.200Z,26.57
2018-02-19T08:51:41.902Z,29.08
2018-02-19T08:53:43.009Z,26.67
2018-02-19T08:58:39.555Z,31.15
2018-02-19T09:03:03.500Z,26.30
2018-02-19T09:05:26.560Z,25.60
2018-02-19T09:07:28.390Z,29.48
2018-02-19T09:09:54.375Z,27.93
2018-02-19T09:12:31.933Z,28.80
2018-02-19T09:14:33.316Z,30.73
2018-02-19T09:19:25.386Z,25.57
2018-02-19T09:24:11.377Z,26.17
2018-02-19T09:26:12.606Z,25.63
2018-02-19T09:28:14.040Z,30.55
2018-02-19T09:30:15.744Z,27.47
2018-02-19T09:36:56.971Z,26.47
2018-02-19T09:38:58.184Z,24.20
2018-02-19T09:45:44.216Z,25.57
2018-02-19T09:47:46.601Z,26.63
2018-02-19T09:52:16.121Z,27.63
2018-02-19T09:54:17.573Z,27.53
2018-02-19T09:56:33.425Z,27.67
2018-02-19T09:58:49.848Z,26.10
2018-02-19T10:01:41.070Z,23.60
2018-02-19T10:04:05.113Z,27.00
2018-02-19T10:06:08.627Z,24.97
2018-02-19T10:08:09.860Z,25.97
2018-02-19T10:12:36.622Z,29.90
2018-02-19T10:14:37.868Z,26.73
2018-02-19T10:19:07.836Z,28.45
2018-02-19T10:21:09.016Z,24.70
2018-02-19T10:23:10.717Z,24.63
2018-02-19T10:32:46.957Z,26.63
2018-02-19T10:34:49.689Z,27.00
2018-02-19T10:37:15.648Z,25.90
2018-02-19T10:39:17.089Z,26.17
2018-02-19T10:46:23.960Z,23.70
2018-02-19T10:48:29.083Z,24.60
2018-02-19T10:53:15.500Z,24.30
2018-02-19T10:55:18.625Z,23.37
2018-02-19T10:57:28.675Z,27.87
2018-02-19T11:01:59.410Z,24.33
2018-02-19T11:11:26.452Z,24.90
2018-02-19T11:13:51.744Z,26.15
2018-02-19T11:16:06.854Z,25.77
2018-02-19T11:20:37.424Z,26.33
2018-02-19T11:22:39.665Z,24.07
2018-02-19T11:24:41.058Z,25.63
2018-02-19T11:26:43.718Z,25.17
2018-02-19T11:28:44.952Z,25.83
2018-02-19T11:30:45.989Z,25.47
2018-02-19T11:32:49.287Z,24.30
2018-02-19T11:34:50.755Z,25.70
2018-02-19T11:37:27.668Z,29.23
2018-02-19T11:39:28.861Z,26.40
2018-02-19T11:41:30.112Z,24.30
2018-02-19T11:43:37.920Z,26.30
2018-02-19T11:45:38.981Z,24.97
2018-02-19T11:48:00.476Z,23.20
2018-02-19T11:50:01.893Z,26.67
2018-02-19T11:52:03.523Z,27.97
2018-02-19T11:56:34.423Z,25.50
2018-02-19T11:58:42.036Z,24.13
2018-02-19T12:00:43.698Z,26.33
2018-02-19T12:05:29.962Z,24.27
2018-02-19T12:09:58.715Z,23.60
2018-02-19T12:11:59.948Z,25.30
2018-02-19T12:16:28.639Z,27.17
2018-02-19T12:18:29.762Z,28.97
2018-02-19T12:20:30.944Z,26.20
2018-02-19T12:25:16.797Z,28.00
2018-02-19T12:27:18.894Z,27.90
2018-02-19T12:29:20.226Z,26.17
2018-02-19T12:31:23.599Z,28.60
2018-02-19T12:33:24.906Z,27.30
2018-02-19T12:35:33.194Z,28.37
2018-02-19T12:37:54.029Z,26.17
2018-02-19T13:48:17.250Z,27.13
2018-02-19T13:52:56.447Z,25.60
2018-02-19T13:55:00.905Z,24.40
2018-02-19T13:57:02.795Z,25.43
2018-02-19T14:01:13.807Z,26.20
2018-02-19T14:03:15.277Z,25.53
2018-02-19T14:05:23.180Z,28.10
2018-02-19T14:07:24.582Z,28.87
2018-02-19T14:09:25.711Z,28.23
2018-02-19T14:11:52.567Z,25.60
2018-02-19T14:16:22.465Z,28.12
2018-02-19T14:18:23.525Z,26.47
2018-02-19T14:20:26.164Z,28.40
2018-02-19T14:22:34.890Z,25.77
2018-02-19T14:24:44.213Z,26.47
2018-02-19T14:26:45.208Z,27.17
2018-02-19T14:34:04.007Z,27.02
2018-02-19T14:38:32.867Z,26.33
2018-02-19T14:40:35.766Z,23.30
2018-02-19T14:45:23.068Z,22.87
2018-02-19T14:47:24.161Z,26.80
2018-02-19T14:49:25.212Z,26.50
2018-02-19T14:56:31.897Z,27.03
2018-02-19T14:58:32.891Z,26.10
2018-02-19T15:00:34.022Z,27.02
2018-02-19T15:05:04.168Z,26.20
2018-02-19T15:07:05.181Z,27.90
2018-02-19T15:09:07.479Z,24.90
2018-02-19T15:13:35.905Z,24.33
2018-02-19T15:15:36.920Z,26.60
2018-02-19T15:17:37.940Z,25.20
2018-02-19T15:19:47.146Z,26.97
2018-02-19T15:21:48.279Z,24.00
2018-02-19T15:23:49.330Z,24.80
2018-02-19T15:33:29.255Z,24.00
2018-02-19T15:35:37.524Z,27.02
2018-02-19T15:37:38.594Z,28.40
2018-02-19T15:39:39.729Z,27.90
2018-02-19T15:42:06.379Z,29.10
2018-02-19T15:46:56.971Z,26.47
2018-02-19T15:48:58.277Z,26.50
2018-02-19T16:03:14.983Z,26.63
2018-02-19T16:05:41.279Z,26.40
2018-02-19T16:07:42.354Z,25.03
2018-02-19T16:09:43.475Z,27.83
2018-02-19T16:11:48.746Z,26.60
2018-02-19T16:13:55.485Z,26.87
2018-02-19T16:16:12.905Z,24.60
2018-02-19T16:23:07.800Z,25.70
2018-02-19T16:25:10.386Z,25.33
2018-02-19T16:29:39.439Z,26.13
2018-02-19T16:31:40.537Z,26.70
2018-02-19T16:33:41.732Z,26.67
2018-02-19T16:35:42.956Z,28.87
2018-02-19T16:42:39.546Z,27.00
2018-02-19T16:45:01.206Z,31.35
2018-02-19T16:52:01.021Z,27.00
2018-02-19T16:58:58.260Z,26.70
2018-02-19T17:01:02.984Z,25.47
2018-02-19T17:03:27.341Z,27.63
2018-02-19T17:05:28.524Z,27.60
2018-02-19T17:07:30.596Z,26.77
2018-02-19T17:09:31.775Z,28.58
2018-02-19T17:11:32.887Z,27.20
2018-02-19T17:18:49.076Z,32.23
2018-02-19T17:20:51.511Z,30.63
2018-02-19T17:27:51.012Z,33.90
2018-02-19T17:29:52.236Z,31.23
2018-02-19T17:36:49.144Z,28.87
2018-02-19T17:41:44.775Z,29.77
2018-02-19T17:51:20.611Z,29.13
2018-02-19T17:55:49.721Z,30.80
2018-02-19T18:05:23.364Z,30.93
2018-02-19T18:07:25.224Z,32.13
2018-02-19T18:09:53.005Z,33.33
2018-02-19T18:11:55.028Z,29.90
2018-02-19T18:16:25.357Z,33.03
2018-02-19T18:24:07.860Z,35.30
2018-02-19T18:33:49.444Z,38.27
2018-02-19T18:43:23.667Z,31.33
2018-02-19T18:47:54.737Z,39.17
2018-02-19T18:50:20.106Z,35.10
2018-02-19T18:54:51.278Z,34.80
2018-02-19T19:00:02.200Z,34.20
2018-02-19T19:11:09.178Z,33.70
2018-02-19T19:26:17.980Z,34.03
2018-02-19T19:30:35.959Z,35.17
2018-02-19T19:35:17.471Z,37.40
2018-02-19T19:37:19.384Z,38.17
2018-02-19T19:39:21.996Z,39.50
2018-02-19T19:43:55.084Z,38.47
2018-02-19T19:55:48.968Z,41.40
2018-02-19T20:00:23.671Z,33.80
2018-02-19T20:05:02.518Z,43.13
2018-02-19T20:07:16.649Z,36.43
2018-02-19T20:11:50.175Z,37.00
2018-02-19T20:19:08.595Z,36.63
2018-02-19T20:26:07.596Z,33.28
2018-02-19T20:28:28.299Z,31.70
2018-02-19T20:46:15.659Z,30.40
2018-02-19T20:50:58.616Z,30.20
2018-02-19T20:53:26.607Z,31.27
2018-02-19T20:55:33.416Z,28.77
2018-02-19T20:57:39.380Z,29.93
2018-02-19T20:59:50.399Z,30.17
2018-02-19T21:11:55.887Z,28.30
2018-02-19T21:14:12.840Z,35.33
2018-02-19T21:16:13.949Z,34.57
2018-02-19T21:44:38.724Z,40.72
2018-02-19T21:46:42.214Z,34.40
2018-02-19T21:51:14.076Z,36.90
2018-02-19T21:53:17.712Z,32.80
2018-02-19T21:57:56.609Z,31.53
2018-02-19T22:02:31.651Z,29.37
2018-02-19T22:04:51.528Z,28.00
2018-02-19T22:09:34.649Z,30.80
2018-02-19T22:30:33.569Z,44.13
2018-02-19T22:33:00.415Z,40.13
2018-02-19T22:47:43.181Z,32.97
2018-02-19T22:50:41.002Z,34.13
2018-02-19T23:09:56.400Z,33.87
2018-02-19T23:23:35.568Z,30.03
2018-02-19T23:30:36.043Z,41.47
2018-02-19T23:42:28.367Z,35.20
2018-02-19T23:49:40.193Z,31.77
2018-02-19T23:52:08.053Z,37.20
2018-02-19T23:59:15.922Z,31.27
